createdAt,value
2023-04-21T00:04:25.113Z,101391.40
2023-04-21T00:09:27.326Z,101397.00
2023-04-21T00:14:28.555Z,101397.40
2023-04-21T00:19:29.760Z,101392.80
2023-04-21T00:24:30.916Z,101388.00
2023-04-21T00:29:32.117Z,101387.00
2023-04-21T00:34:34.080Z,101382.60
2023-04-21T00:39:35.614Z,101381.80
2023-04-21T00:44:36.821Z,101382.00
2023-04-21T00:49:38.085Z,101379.00
2023-04-21T00:54:39.560Z,101380.20
2023-04-21T00:59:41.363Z,101379.80
2023-04-21T01:04:44.858Z,101379.60
2023-04-21T01:09:46.005Z,101382.20
2023-04-21T01:14:47.385Z,101378.60
2023-04-21T01:19:50.049Z,101379.40
2023-04-21T01:24:51.442Z,101375.40
2023-04-21T01:29:52.790Z,101377.20
2023-04-21T01:34:55.783Z,101375.20
2023-04-21T01:40:04.390Z,101371.00
2023-04-21T01:45:07.453Z,101375.00
2023-04-21T01:50:09.492Z,101373.40
2023-04-21T01:55:10.812Z,101373.60
2023-04-21T02:00:13.938Z,101369.20
2023-04-21T02:05:15.146Z,101363.80
2023-04-21T02:10:16.674Z,101362.80
2023-04-21T02:15:17.911Z,101363.60
2023-04-21T02:20:19.118Z,101358.80
2023-04-21T02:25:20.384Z,101363.40
2023-04-21T02:30:21.559Z,101362.80
2023-04-21T02:35:22.916Z,101362.80
2023-04-21T02:40:24.105Z,101362.40
2023-04-21T02:45:25.419Z,101356.40
2023-04-21T02:50:26.983Z,101364.80
2023-04-21T02:55:28.257Z,101364.60
2023-04-21T03:00:29.949Z,101354.00
2023-04-21T03:05:31.622Z,101352.60
2023-04-21T03:10:32.810Z,101353.00
2023-04-21T03:15:34.038Z,101349.40
2023-04-21T03:20:35.279Z,101350.40
2023-04-21T03:25:38.383Z,101348.60
2023-04-21T03:30:39.826Z,101346.00
2023-04-21T03:35:40.992Z,101344.60
2023-04-21T03:40:42.197Z,101340.00
2023-04-21T03:45:43.394Z,101333.20
2023-04-21T03:50:44.705Z,101320.60
2023-04-21T03:55:48.748Z,101314.40
2023-04-21T04:00:50.263Z,101309.80
2023-04-21T04:05:51.739Z,101307.00
2023-04-21T04:10:53.144Z,101297.40
2023-04-21T04:15:54.600Z,101304.80
2023-04-21T04:20:55.777Z,101313.20
2023-04-21T04:25:56.947Z,101310.20
2023-04-21T04:30:59.944Z,101304.20
2023-04-21T04:36:01.194Z,101309.60
2023-04-21T04:41:04.450Z,101286.60
2023-04-21T04:46:05.745Z,101274.20
2023-04-21T04:51:07.949Z,101286.20
2023-04-21T04:56:09.167Z,101274.40
2023-04-21T05:01:13.137Z,101270.80
2023-04-21T05:06:14.548Z,101258.60
2023-04-21T05:11:15.750Z,101253.00
2023-04-21T05:16:16.983Z,101258.00
2023-04-21T05:21:28.054Z,101251.60
2023-04-21T05:26:29.579Z,101248.60
2023-04-21T05:31:30.840Z,101239.80
2023-04-21T05:36:32.064Z,101244.40
2023-04-21T05:41:33.275Z,101250.80
2023-04-21T05:46:34.730Z,101263.40
2023-04-21T05:51:36.227Z,101245.40
2023-04-21T05:56:37.606Z,101247.00
2023-04-21T06:01:38.885Z,101238.60
2023-04-21T06:06:40.193Z,101243.20
2023-04-21T06:11:41.383Z,101248.00
2023-04-21T06:16:42.641Z,101244.80
2023-04-21T06:21:44.129Z,101242.80
2023-04-21T06:26:45.343Z,101240.40
2023-04-21T06:31:46.721Z,101234.60
2023-04-21T06:36:47.987Z,101223.00
2023-04-21T06:41:49.246Z,101227.80
2023-04-21T06:46:50.595Z,101230.20
2023-04-21T06:51:51.785Z,101231.80
2023-04-21T06:56:53.011Z,101226.40
2023-04-21T07:01:54.323Z,101229.00
2023-04-21T07:06:56.024Z,101229.40
2023-04-21T07:11:57.796Z,101231.80
2023-04-21T07:16:59.121Z,101230.00
2023-04-21T07:22:00.422Z,101238.40
2023-04-21T07:27:04.559Z,101230.80
2023-04-21T07:32:05.749Z,101234.40
2023-04-21T07:37:06.951Z,101234.80
2023-04-21T07:42:08.991Z,101236.40
2023-04-21T07:47:10.536Z,101232.60
2023-04-21T07:52:11.792Z,101231.60
2023-04-21T07:57:13.338Z,101232.80
2023-04-21T08:02:14.603Z,101239.00
2023-04-21T08:07:16.048Z,101229.00
2023-04-21T08:12:17.367Z,101229.40
2023-04-21T08:17:18.781Z,101223.00
2023-04-21T08:22:20.325Z,101217.60
2023-04-21T08:27:21.661Z,101224.60
2023-04-21T08:32:23.821Z,101232.60
2023-04-21T08:37:25.145Z,101230.40
2023-04-21T08:42:26.448Z,101226.40
2023-04-21T08:47:32.165Z,101219.00
2023-04-21T08:52:33.442Z,101235.40
2023-04-21T08:57:34.602Z,101223.40
2023-04-21T09:03:06.904Z,101211.40
2023-04-21T09:08:16.048Z,101214.20
2023-04-21T09:13:19.137Z,101223.40
2023-04-21T09:18:23.355Z,101193.60
2023-04-21T09:23:25.389Z,101192.60
2023-04-21T09:28:32.107Z,101201.00
2023-04-21T09:33:45.630Z,101204.40
2023-04-21T09:44:07.952Z,101194.80
2023-04-21T09:49:15.637Z,101196.20
2023-04-21T09:59:29.992Z,101182.80
2023-04-21T10:04:33.492Z,101191.00
2023-04-21T10:09:45.407Z,101181.60
2023-04-21T10:14:54.684Z,101173.80
2023-04-21T10:19:57.853Z,101169.40
2023-04-21T10:25:02.653Z,101174.80
2023-04-21T10:30:28.069Z,101169.00
2023-04-21T10:36:11.367Z,101176.80
2023-04-21T10:41:33.778Z,101185.40
2023-04-21T10:46:44.417Z,101187.00
2023-04-21T10:51:57.836Z,101175.80
2023-04-21T10:56:59.148Z,101174.60
2023-04-21T11:02:03.126Z,101173.20
2023-04-21T11:07:13.318Z,101163.80
2023-04-21T11:12:17.450Z,101166.80
2023-04-21T11:17:22.396Z,101167.60
2023-04-21T11:22:26.282Z,101157.20
2023-04-21T11:27:32.016Z,101151.20
2023-04-21T11:32:33.296Z,101154.40
2023-04-21T11:37:35.912Z,101152.20
2023-04-21T11:42:37.294Z,101136.20
2023-04-21T11:47:39.319Z,101124.00
2023-04-21T11:52:42.701Z,101124.40
2023-04-21T11:57:43.974Z,101114.80
2023-04-21T12:02:55.513Z,101106.00
2023-04-21T12:07:57.030Z,101103.00
2023-04-21T12:12:58.323Z,101105.60
2023-04-21T12:17:59.500Z,101084.60
2023-04-21T12:23:00.824Z,101075.20
2023-04-21T12:28:02.056Z,101082.80
2023-04-21T12:33:03.365Z,101065.80
2023-04-21T12:38:04.806Z,101058.20
2023-04-21T12:43:07.134Z,101051.60
2023-04-21T12:48:08.427Z,101052.00
2023-04-21T12:53:09.964Z,101046.00
2023-04-21T12:58:12.027Z,101040.80
2023-04-21T13:03:13.343Z,101032.80
2023-04-21T13:08:14.884Z,101028.00
2023-04-21T13:13:16.416Z,101030.40
2023-04-21T13:18:17.724Z,101024.20
2023-04-21T13:23:18.941Z,101017.40
2023-04-21T13:28:20.457Z,101017.20
2023-04-21T13:33:22.070Z,101007.60
2023-04-21T13:38:23.361Z,101008.80
2023-04-21T13:43:24.852Z,100999.60
2023-04-21T13:48:28.224Z,100993.00
2023-04-21T13:53:29.547Z,100995.80
2023-04-21T13:58:30.796Z,100986.00
2023-04-21T14:03:32.088Z,100978.00
2023-04-21T14:08:35.198Z,100975.60
2023-04-21T14:13:44.573Z,100960.60
2023-04-21T14:18:53.572Z,100959.40
2023-04-21T14:23:54.829Z,100953.80
2023-04-21T14:28:56.089Z,100946.40
2023-04-21T14:33:57.348Z,100937.20
2023-04-21T14:38:58.500Z,100932.00
2023-04-21T14:43:59.690Z,100918.00
2023-04-21T14:49:01.017Z,100918.80
2023-04-21T14:54:02.332Z,100911.00
2023-04-21T14:59:03.533Z,100911.20
2023-04-21T15:04:05.762Z,100909.80
2023-04-21T15:09:07.489Z,100909.20
2023-04-21T15:14:08.929Z,100904.20
2023-04-21T15:19:10.449Z,100906.60
2023-04-21T15:24:11.741Z,100910.00
2023-04-21T15:29:12.903Z,100901.60
2023-04-21T15:34:14.132Z,100904.40
2023-04-21T15:39:15.515Z,100903.00
2023-04-21T15:44:16.767Z,100896.80
2023-04-21T15:49:18.080Z,100894.80
2023-04-21T15:54:19.601Z,100890.80
2023-04-21T15:59:21.585Z,100881.20
2023-04-21T16:04:25.297Z,100885.20
2023-04-21T16:09:26.835Z,100880.20
2023-04-21T16:14:33.850Z,100878.40
2023-04-21T16:19:44.834Z,100872.60
2023-04-21T16:24:46.246Z,100871.60
2023-04-21T16:29:48.397Z,100875.20
2023-04-21T16:34:49.736Z,100873.40
2023-04-21T16:39:51.074Z,100872.60
2023-04-21T16:44:58.269Z,100872.80
2023-04-21T16:49:59.516Z,100870.60
2023-04-21T16:55:00.763Z,100875.20
2023-04-21T17:00:06.232Z,100872.40
2023-04-21T17:05:08.488Z,100874.20
2023-04-21T17:10:10.411Z,100871.40
2023-04-21T17:15:11.745Z,100876.20
2023-04-21T17:20:14.135Z,100878.20
2023-04-21T17:25:15.622Z,100879.00
2023-04-21T17:30:18.259Z,100879.80
2023-04-21T17:35:19.659Z,100885.60
2023-04-21T17:40:21.543Z,100891.60
2023-04-21T17:45:22.775Z,100890.40
2023-04-21T17:50:26.720Z,100890.00
2023-04-21T17:55:27.956Z,100890.80
2023-04-21T18:00:33.621Z,100900.80
2023-04-21T18:05:34.963Z,100900.20
2023-04-21T18:10:37.083Z,100898.80
2023-04-21T18:15:38.260Z,100903.40
2023-04-21T18:20:40.043Z,100907.40
2023-04-21T18:25:43.049Z,100906.60
2023-04-21T18:30:46.118Z,100912.40
2023-04-21T18:35:47.405Z,100912.20
2023-04-21T18:40:48.663Z,100916.00
2023-04-21T18:45:50.117Z,100912.40
2023-04-21T18:50:51.334Z,100907.60
2023-04-21T18:55:52.520Z,100904.00
2023-04-21T19:00:54.123Z,100905.20
2023-04-21T19:05:55.336Z,100902.40
2023-04-21T19:10:56.729Z,100898.60
2023-04-21T19:15:57.988Z,100908.00
2023-04-21T19:20:59.556Z,100906.00
2023-04-21T19:26:04.333Z,100902.20
2023-04-21T19:31:06.287Z,100901.60
2023-04-21T19:36:08.691Z,100897.60
2023-04-21T19:41:10.151Z,100897.00
2023-04-21T19:46:11.420Z,100897.20
2023-04-21T19:51:12.668Z,100894.40
2023-04-21T19:56:13.927Z,100891.20
2023-04-21T20:01:15.099Z,100890.80
2023-04-21T20:06:16.299Z,100887.80
2023-04-21T20:11:17.769Z,100891.80
2023-04-21T20:16:19.229Z,100883.60
2023-04-21T20:21:21.376Z,100883.20
2023-04-21T20:26:22.584Z,100883.80
2023-04-21T20:31:24.769Z,100885.20
2023-04-21T20:36:26.951Z,100887.00
2023-04-21T20:41:28.673Z,100888.40
2023-04-21T20:46:30.432Z,100892.00
2023-04-21T20:51:32.487Z,100899.40
2023-04-21T20:56:33.714Z,100894.60
2023-04-21T21:01:38.366Z,100887.40
2023-04-21T21:06:39.625Z,100886.80
2023-04-21T21:11:40.769Z,100886.80
2023-04-21T21:16:42.058Z,100892.80
2023-04-21T21:21:43.414Z,100892.60
2023-04-21T21:26:44.605Z,100892.40
2023-04-21T21:31:45.848Z,100901.00
2023-04-21T21:36:47.349Z,100900.80
2023-04-21T21:41:48.516Z,100899.60
2023-04-21T21:46:50.311Z,100893.60
2023-04-21T21:51:53.265Z,100895.80
2023-04-21T21:56:54.623Z,100892.60
2023-04-21T22:01:56.105Z,100888.20
2023-04-21T22:06:57.461Z,100885.40
2023-04-21T22:11:58.890Z,100887.60
2023-04-21T22:17:00.163Z,100884.80
2023-04-21T22:22:01.365Z,100880.00
2023-04-21T22:27:02.908Z,100882.80
2023-04-21T22:32:04.867Z,100887.00
2023-04-21T22:37:06.040Z,100885.60
2023-04-21T22:42:07.273Z,100881.00
2023-04-21T22:47:09.918Z,100885.20
2023-04-21T22:52:11.267Z,100878.60
2023-04-21T22:57:12.769Z,100880.40
2023-04-21T23:02:14.171Z,100875.80
2023-04-21T23:07:15.539Z,100873.60
2023-04-21T23:12:16.793Z,100867.60
2023-04-21T23:17:17.978Z,100860.20
2023-04-21T23:22:19.760Z,100862.20
2023-04-21T23:27:21.099Z,100865.00
2023-04-21T23:32:22.283Z,100862.20
2023-04-21T23:37:23.476Z,100857.60
2023-04-21T23:42:24.812Z,100857.20
2023-04-21T23:47:26.006Z,100859.20
2023-04-21T23:52:27.351Z,100854.20
2023-04-21T23:57:28.618Z,100847.00
